Time;durP1;ratioP1;P1;durP2;ratioP2;P2;SDS_P1;SDS_P2;PMS_P1;PMS_P2;Temp;Humidity;BMP_temperature;BMP_pressure;BME280_temperature;BME280_humidity;BME280_pressure;Samples;Min_cycle;Max_cycle;Signal;HPM_P1;HPM_P2
2021/08/22 00:02:06;;;;;;;12.15;8.10;;;;;;;17.04;90.21;95016.39;1590306;90;21469;-57
2021/08/22 00:04:33;;;;;;;11.50;8.08;;;;;;;17.05;90.43;95013.14;1590354;90;21096;-58
2021/08/22 00:06:59;;;;;;;11.30;8.90;;;;;;;17.07;90.22;95015.45;1590348;90;21004;-57
2021/08/22 00:09:26;;;;;;;10.50;7.33;;;;;;;17.06;90.11;95011.89;1590253;90;21022;-57
2021/08/22 00:11:54;;;;;;;13.20;8.25;;;;;;;17.09;90.05;95006.00;1590358;90;21508;-57
2021/08/22 00:14:21;;;;;;;12.78;8.55;;;;;;;17.08;89.93;95011.42;1590213;90;21124;-56
2021/08/22 00:16:51;;;;;;;14.95;8.30;;;;;;;17.06;89.63;95009.75;1590299;89;20993;-57
2021/08/22 00:19:18;;;;;;;10.13;7.30;;;;;;;17.01;89.74;95009.02;1562837;91;21018;-57
2021/08/22 00:21:45;;;;;;;9.43;7.08;;;;;;;17.00;89.50;95004.71;1562850;90;21040;-57
2021/08/22 00:24:13;;;;;;;9.70;6.60;;;;;;;16.93;89.32;94999.56;1562869;90;21222;-57
2021/08/22 00:26:39;;;;;;;8.05;6.55;;;;;;;16.86;89.51;95002.72;1562758;91;21016;-57
2021/08/22 00:29:06;;;;;;;10.35;7.65;;;;;;;16.85;89.97;95001.19;1571596;90;21038;-58
2021/08/22 00:31:33;;;;;;;12.55;7.95;;;;;;;16.89;90.12;95005.95;1586391;89;21024;-57
2021/08/22 00:34:00;;;;;;;11.15;8.18;;;;;;;16.91;89.91;94990.94;1586417;90;21490;-58
2021/08/22 00:36:30;;;;;;;11.75;8.28;;;;;;;16.90;89.47;94992.94;1586361;89;21006;-58
2021/08/22 00:38:57;;;;;;;13.25;7.70;;;;;;;16.87;89.46;94990.38;1586474;90;21434;-58
2021/08/22 00:41:23;;;;;;;16.02;8.90;;;;;;;16.90;89.33;94993.58;1586455;90;21033;-58
2021/08/22 00:43:50;;;;;;;11.93;8.35;;;;;;;16.89;89.34;94987.24;1586387;90;20970;-57
2021/08/22 00:46:17;;;;;;;14.15;7.78;;;;;;;16.88;89.35;94985.71;1586485;90;20993;-57
2021/08/22 00:48:45;;;;;;;16.93;8.28;;;;;;;16.86;89.34;94987.42;1586332;89;20981;-57
2021/08/22 00:51:16;;;;;;;11.28;8.18;;;;;;;16.87;89.49;94984.82;1586213;89;21471;-57
2021/08/22 00:53:44;;;;;;;10.18;7.25;;;;;;;16.88;89.33;94990.52;1586379;89;21033;-57
2021/08/22 00:56:13;;;;;;;14.73;8.53;;;;;;;16.86;89.29;94988.82;1586475;90;21536;-58
2021/08/22 00:58:40;;;;;;;13.05;8.90;;;;;;;16.86;89.38;94992.98;1586460;89;21453;-58
2021/08/22 01:01:18;;;;;;;11.73;8.20;;;;;;;16.87;89.49;94991.13;1586306;90;21144;-58
2021/08/22 01:04:12;;;;;;;13.30;7.85;;;;;;;16.91;89.44;94993.08;1586255;89;21100;-58
2021/08/22 01:07:05;;;;;;;11.97;7.03;;;;;;;16.94;89.07;94993.50;1586403;89;21034;-57
2021/08/22 01:09:48;;;;;;;12.10;7.75;;;;;;;16.91;88.88;94990.30;1586487;89;21081;-59
2021/08/22 01:12:45;;;;;;;12.07;8.60;;;;;;;16.85;88.91;94986.67;1586329;89;21014;-59
2021/08/22 01:15:15;;;;;;;14.03;8.20;;;;;;;16.78;88.98;94987.70;1586317;90;21058;-57
2021/08/22 01:17:46;;;;;;;16.17;8.18;;;;;;;16.70;89.17;94985.17;1586239;90;21021;-58
2021/08/22 01:20:36;;;;;;;10.82;7.10;;;;;;;16.68;89.23;94980.70;1562292;90;21025;-59
2021/08/22 01:23:04;;;;;;;12.13;7.42;;;;;;;16.65;89.31;94984.44;1586335;89;21098;-58
2021/08/22 01:25:34;;;;;;;12.47;8.30;;;;;;;16.63;89.44;94982.16;1586376;90;21093;-58
2021/08/22 01:28:01;;;;;;;13.45;8.15;;;;;;;16.62;89.43;94984.02;1585871;90;21147;-58
2021/08/22 01:30:28;;;;;;;12.63;7.70;;;;;;;16.58;89.43;94980.67;1583600;90;20993;-58
2021/08/22 01:32:54;;;;;;;14.13;7.95;;;;;;;16.56;89.50;94981.78;1614438;89;21035;-57
2021/08/22 01:35:23;;;;;;;9.20;7.17;;;;;;;16.56;89.67;94978.36;1583658;90;21608;-58
2021/08/22 01:37:51;;;;;;;11.83;8.15;;;;;;;16.58;89.69;94978.64;1583815;89;21026;-58
2021/08/22 01:40:20;;;;;;;10.88;8.13;;;;;;;16.59;89.65;94976.65;1583720;90;21810;-57
2021/08/22 01:42:49;;;;;;;11.30;8.18;;;;;;;16.60;89.58;94979.56;1583813;90;20989;-57
2021/08/22 01:45:19;;;;;;;11.70;7.42;;;;;;;16.59;89.41;94980.20;1583619;90;21005;-58
2021/08/22 01:47:49;;;;;;;12.75;8.03;;;;;;;16.57;89.46;94980.53;1583761;90;21062;-58
2021/08/22 01:50:19;;;;;;;14.33;8.78;;;;;;;16.58;89.59;94976.50;1583748;89;21005;-57
2021/08/22 01:52:49;;;;;;;13.58;7.92;;;;;;;16.63;89.81;94970.27;1614578;87;21444;-58
2021/08/22 01:55:16;;;;;;;18.57;7.97;;;;;;;16.68;89.44;94969.58;1583731;89;20989;-58
2021/08/22 01:57:43;;;;;;;10.32;7.42;;;;;;;16.69;89.15;94971.14;1583756;89;21520;-58
2021/08/22 02:00:12;;;;;;;15.60;7.90;;;;;;;16.67;88.95;94968.05;1614359;88;20997;-58
2021/08/22 02:02:47;;;;;;;10.38;6.70;;;;;;;16.64;88.81;94968.41;1583695;89;21009;-58
2021/08/22 02:05:14;;;;;;;9.03;7.30;;;;;;;16.62;88.86;94970.13;1583032;90;21976;-58
2021/08/22 02:07:42;;;;;;;8.13;6.60;;;;;;;16.58;89.26;94968.17;1583711;90;21076;-58
2021/08/22 02:10:29;;;;;;;9.23;7.33;;;;;;;16.53;89.60;94966.83;1584037;89;21480;-58
2021/08/22 02:12:58;;;;;;;9.48;7.55;;;;;;;16.52;89.69;94961.77;1583972;90;21091;-57
2021/08/22 02:15:33;;;;;;;8.53;6.92;;;;;;;16.46;89.56;94967.23;1583846;90;21026;-58
2021/08/22 02:18:03;;;;;;;9.43;7.70;;;;;;;16.40;89.86;94962.81;1583900;90;21866;-58
2021/08/22 02:20:31;;;;;;;9.38;7.80;;;;;;;16.31;90.10;94971.20;1557603;89;21033;-58
2021/08/22 02:22:58;;;;;;;16.10;6.90;;;;;;;16.26;90.39;94966.32;1583825;89;21144;-58
2021/08/22 02:25:33;;;;;;;10.10;7.00;;;;;;;16.22;90.62;94971.30;1583831;90;21045;-59
2021/08/22 02:27:58;;;;;;;10.98;8.10;;;;;;;16.22;91.02;94969.14;1583944;90;21525;-56
2021/08/22 02:30:26;;;;;;;14.70;9.20;;;;;;;16.20;91.23;94962.69;1562955;91;21153;-58
2021/08/22 02:32:53;;;;;;;18.92;10.78;;;;;;;16.20;91.31;94971.63;1539549;91;21112;-57
2021/08/22 02:35:21;;;;;;;13.93;8.65;;;;;;;16.19;91.44;94965.93;1577540;91;21140;-57
2021/08/22 02:37:48;;;;;;;20.08;9.70;;;;;;;16.22;91.75;94969.91;1563205;91;21488;-58
2021/08/22 02:40:16;;;;;;;14.73;9.33;;;;;;;16.25;91.52;94968.95;1563286;90;21068;-58
2021/08/22 02:42:44;;;;;;;16.52;9.85;;;;;;;16.26;91.43;94960.77;1577503;90;21018;-57
2021/08/22 02:45:12;;;;;;;22.58;11.70;;;;;;;16.27;91.55;94967.85;1562858;91;21099;-57
2021/08/22 02:47:40;;;;;;;13.60;10.13;;;;;;;16.29;91.65;94959.20;1562876;91;21028;-58
2021/08/22 02:50:08;;;;;;;16.50;7.78;;;;;;;16.30;91.32;94961.34;1577604;89;20981;-57
2021/08/22 02:52:35;;;;;;;13.58;8.18;;;;;;;16.26;91.27;94959.38;1563189;91;21063;-58
2021/08/22 02:55:01;;;;;;;11.33;7.85;;;;;;;16.19;91.26;94959.77;1563198;91;21900;-58
2021/08/22 02:57:28;;;;;;;11.93;7.85;;;;;;;16.13;91.49;94960.27;1562896;91;21033;-58
2021/08/22 02:59:56;;;;;;;18.45;8.00;;;;;;;16.10;91.71;94963.26;1562937;90;21121;-59
2021/08/22 03:02:23;;;;;;;12.20;8.25;;;;;;;16.06;91.78;94957.88;1563069;90;21539;-58
2021/08/22 03:04:49;;;;;;;15.50;7.65;;;;;;;16.04;91.97;94960.38;1562957;91;21113;-58
2021/08/22 03:07:16;;;;;;;12.33;7.72;;;;;;;16.04;92.06;94954.83;1562945;91;21164;-58
2021/08/22 03:09:42;;;;;;;13.25;7.62;;;;;;;16.05;92.16;94950.02;1562890;91;21056;-58
2021/08/22 03:12:10;;;;;;;14.38;8.75;;;;;;;16.11;92.31;94950.27;1563166;91;21014;-58
2021/08/22 03:14:38;;;;;;;12.68;8.15;;;;;;;16.15;92.17;94952.26;1577415;89;20986;-58
2021/08/22 03:17:05;;;;;;;13.88;7.97;;;;;;;16.16;92.28;94953.80;1562933;91;21099;-58
2021/08/22 03:19:33;;;;;;;12.13;7.20;;;;;;;16.23;92.42;94954.79;1590371;90;21548;-58
2021/08/22 03:22:00;;;;;;;14.80;8.08;;;;;;;16.29;91.97;94950.09;1590634;89;20958;-58
2021/08/22 03:24:26;;;;;;;13.65;8.73;;;;;;;16.33;91.85;94950.05;1562902;91;21020;-58
2021/08/22 03:26:53;;;;;;;17.37;8.03;;;;;;;16.38;91.54;94951.42;1577502;91;21029;-58
2021/08/22 03:29:19;;;;;;;14.75;7.72;;;;;;;16.39;91.23;94955.73;1574352;89;21005;-58
2021/08/22 03:31:47;;;;;;;14.07;6.97;;;;;;;16.39;90.95;94957.13;1590285;89;21116;-58
2021/08/22 03:34:13;;;;;;;11.88;6.97;;;;;;;16.37;90.66;94950.64;1590265;90;21013;-58
2021/08/22 03:36:41;;;;;;;13.72;8.73;;;;;;;16.35;90.66;94958.69;1590388;88;21113;-58
2021/08/22 03:39:08;;;;;;;19.95;9.03;;;;;;;16.37;90.85;94955.45;1590519;89;21445;-58
2021/08/22 03:41:35;;;;;;;17.30;9.53;;;;;;;16.39;90.58;94952.95;1590657;88;21089;-58
2021/08/22 03:44:03;;;;;;;17.73;9.15;;;;;;;16.37;90.46;94958.23;1590335;90;21137;-58
2021/08/22 03:46:30;;;;;;;21.35;9.63;;;;;;;16.35;90.46;94962.11;1590333;89;21466;-58
2021/08/22 03:48:57;;;;;;;22.98;10.60;;;;;;;16.33;90.40;94959.77;1590378;88;21005;-58
2021/08/22 03:51:24;;;;;;;19.42;9.60;;;;;;;16.30;90.51;94962.12;1590499;90;21021;-58
2021/08/22 03:53:50;;;;;;;18.48;9.75;;;;;;;16.30;90.43;94961.34;1590516;90;20997;-58
2021/08/22 03:56:17;;;;;;;17.90;9.63;;;;;;;16.30;90.35;94966.89;1590554;88;21125;-58
2021/08/22 03:58:45;;;;;;;18.60;8.83;;;;;;;16.26;90.55;94966.95;1590510;89;21650;-58
2021/08/22 04:01:12;;;;;;;18.98;8.58;;;;;;;16.26;90.67;94964.18;1590500;90;21064;-59
2021/08/22 04:03:40;;;;;;;19.73;9.60;;;;;;;16.28;90.80;94959.66;1588860;88;21481;-58
2021/08/22 04:06:25;;;;;;;21.12;9.25;;;;;;;16.31;90.76;94971.20;1589412;88;21065;-59
2021/08/22 04:08:53;;;;;;;13.80;8.15;;;;;;;16.35;91.01;94960.08;1590337;89;22014;-58
2021/08/22 04:11:19;;;;;;;15.10;7.92;;;;;;;16.41;90.75;94965.73;1590518;89;21042;-59
2021/08/22 04:13:47;;;;;;;12.93;7.90;;;;;;;16.48;90.79;94961.17;1590240;88;20986;-58
2021/08/22 04:16:13;;;;;;;11.48;8.20;;;;;;;16.57;90.52;94965.25;1590506;89;21045;-59
2021/08/22 04:18:40;;;;;;;15.25;8.68;;;;;;;16.65;90.44;94964.99;1590290;90;20998;-58
2021/08/22 04:21:08;;;;;;;11.45;8.13;;;;;;;16.75;90.26;94962.27;1590567;90;21904;-59
2021/08/22 04:23:34;;;;;;;13.22;8.28;;;;;;;16.83;89.73;94962.00;1590220;89;21037;-58
2021/08/22 04:26:01;;;;;;;13.62;8.70;;;;;;;16.87;89.18;94971.67;1590446;89;21049;-58
2021/08/22 04:28:27;;;;;;;10.48;7.20;;;;;;;16.87;89.05;94963.34;1590347;89;20989;-58
2021/08/22 04:30:54;;;;;;;14.20;8.93;;;;;;;16.93;88.86;94970.37;1584440;90;21524;-59
2021/08/22 04:33:21;;;;;;;15.80;9.35;;;;;;;17.00;88.34;94968.58;1583688;89;21156;-59
2021/08/22 04:35:48;;;;;;;17.37;8.28;;;;;;;17.03;88.06;94966.22;1583727;90;21026;-59
2021/08/22 04:38:14;;;;;;;13.83;8.65;;;;;;;17.07;88.08;94966.80;1614375;87;21789;-59
2021/08/22 04:40:41;;;;;;;12.58;8.35;;;;;;;17.13;88.04;94971.17;1583654;89;21112;-58
2021/08/22 04:43:08;;;;;;;12.00;7.65;;;;;;;17.21;87.61;94971.53;1583701;90;21005;-58
2021/08/22 04:45:34;;;;;;;17.07;8.68;;;;;;;17.30;87.50;94979.77;1583729;90;21162;-58
2021/08/22 04:48:01;;;;;;;10.65;7.75;;;;;;;17.40;87.08;94977.02;1583693;89;21134;-59
2021/08/22 04:50:28;;;;;;;19.82;8.65;;;;;;;17.49;86.38;94972.08;1583625;90;21041;-59
2021/08/22 04:52:54;;;;;;;12.55;8.13;;;;;;;17.50;85.57;94965.91;1583513;90;21529;-58
2021/08/22 04:55:22;;;;;;;10.55;7.08;;;;;;;17.49;85.51;94972.08;1584010;90;21005;-58
2021/08/22 04:57:49;;;;;;;16.57;7.58;;;;;;;17.53;85.34;94964.92;1583657;90;21159;-59
2021/08/22 05:00:17;;;;;;;13.83;8.40;;;;;;;17.50;85.14;94964.52;1583621;90;21045;-59
2021/08/22 05:02:44;;;;;;;15.20;7.83;;;;;;;17.46;85.28;94968.14;1583718;89;21056;-58
2021/08/22 05:05:11;;;;;;;20.43;9.03;;;;;;;17.40;85.24;94972.84;1583816;89;21470;-59
2021/08/22 05:07:38;;;;;;;9.83;7.62;;;;;;;17.38;85.72;94968.39;1614538;88;21555;-58
2021/08/22 05:10:08;;;;;;;21.23;9.23;;;;;;;17.44;85.58;94973.42;1583708;90;21010;-59
2021/08/22 05:12:35;;;;;;;18.15;9.38;;;;;;;17.48;85.50;94973.33;1583700;89;21604;-59
2021/08/22 05:15:01;;;;;;;12.93;8.58;;;;;;;17.55;85.53;94967.98;1583931;89;21816;-59
2021/08/22 05:17:28;;;;;;;13.32;8.63;;;;;;;17.59;85.30;94973.48;1614380;87;20988;-58
2021/08/22 05:19:56;;;;;;;15.53;8.45;;;;;;;17.61;85.27;94967.45;1583642;90;21101;-58
2021/08/22 05:22:23;;;;;;;18.95;8.78;;;;;;;17.63;85.28;94971.90;1614528;89;21564;-59
2021/08/22 05:24:49;;;;;;;11.95;8.45;;;;;;;17.63;85.16;94972.65;1614338;89;20968;-59
2021/08/22 05:27:17;;;;;;;14.03;9.33;;;;;;;17.63;85.18;94969.12;1614556;88;21017;-59
2021/08/22 05:29:44;;;;;;;13.58;8.35;;;;;;;17.65;85.17;94966.61;1583718;90;21068;-59
2021/08/22 05:32:11;;;;;;;10.85;9.15;;;;;;;17.68;85.11;94968.41;1583698;89;21014;-58
2021/08/22 05:34:37;;;;;;;10.43;8.65;;;;;;;17.70;84.85;94970.08;1583685;89;21769;-58
2021/08/22 05:37:04;;;;;;;16.93;8.95;;;;;;;17.75;84.84;94969.38;1583793;89;21073;-60
2021/08/22 05:39:32;;;;;;;14.65;8.78;;;;;;;17.80;84.65;94971.48;1583941;89;21073;-58
2021/08/22 05:42:00;;;;;;;12.50;9.15;;;;;;;17.85;84.47;94973.55;1583863;89;21001;-60
2021/08/22 05:44:27;;;;;;;11.43;8.05;;;;;;;17.92;84.24;94976.69;1584062;89;21005;-59
2021/08/22 05:46:53;;;;;;;11.25;9.15;;;;;;;17.96;84.09;94974.45;1583767;89;21345;-59
2021/08/22 05:49:20;;;;;;;12.05;8.05;;;;;;;17.97;83.73;94978.01;1583768;89;20989;-59
2021/08/22 05:51:49;;;;;;;8.98;7.42;;;;;;;17.96;83.47;94977.84;1583793;90;21030;-60
2021/08/22 05:54:16;;;;;;;15.45;9.20;;;;;;;17.95;83.42;94978.48;1584037;90;21041;-59
2021/08/22 05:56:43;;;;;;;12.28;9.30;;;;;;;17.98;83.39;94985.11;1583819;90;21104;-59
2021/08/22 05:59:09;;;;;;;19.73;11.35;;;;;;;18.03;83.22;94980.97;1614504;87;21171;-58
2021/08/22 06:01:36;;;;;;;9.75;8.15;;;;;;;18.10;83.09;94979.17;1614388;87;21028;-59
2021/08/22 06:04:03;;;;;;;15.32;8.95;;;;;;;18.16;82.78;94973.66;1583941;89;21497;-59
2021/08/22 06:06:30;;;;;;;14.65;10.53;;;;;;;18.15;82.65;94970.09;1583723;90;21051;-60
2021/08/22 06:08:57;;;;;;;23.20;11.55;;;;;;;18.20;82.25;94971.55;1583784;89;21041;-58
2021/08/22 06:11:23;;;;;;;13.78;10.32;;;;;;;18.23;81.89;94972.58;1583745;90;21965;-60
2021/08/22 06:13:50;;;;;;;16.67;11.03;;;;;;;18.24;81.38;94970.70;1583879;89;21481;-59
2021/08/22 06:16:18;;;;;;;17.95;10.18;;;;;;;18.25;81.24;94965.91;1583776;89;21133;-59
2021/08/22 06:18:45;;;;;;;11.15;9.90;;;;;;;18.28;81.00;94967.09;1583793;90;21041;-59
2021/08/22 06:21:11;;;;;;;12.80;9.65;;;;;;;18.32;80.71;94965.50;1614491;87;21083;-59
2021/08/22 06:23:38;;;;;;;13.62;9.98;;;;;;;18.35;80.37;94970.08;1583858;90;21106;-59
2021/08/22 06:26:04;;;;;;;17.57;10.15;;;;;;;18.36;80.20;94972.39;1583834;89;21110;-59
2021/08/22 06:28:31;;;;;;;13.18;9.23;;;;;;;18.41;80.01;94971.66;1584026;89;20989;-59
2021/08/22 06:30:57;;;;;;;25.27;10.30;;;;;;;18.48;79.62;94971.21;1579622;90;21510;-59
2021/08/22 06:33:24;;;;;;;15.03;9.93;;;;;;;18.51;79.22;94969.48;1563145;91;21587;-58
2021/08/22 06:36:01;;;;;;;13.10;9.75;;;;;;;18.53;78.96;94968.35;1590266;90;21060;-59
2021/08/22 06:38:28;;;;;;;12.25;10.38;;;;;;;18.57;78.45;94968.27;1590449;88;21076;-59
2021/08/22 06:40:56;;;;;;;14.18;9.80;;;;;;;18.59;77.95;94969.94;1562832;91;21057;-60
2021/08/22 06:43:23;;;;;;;11.80;9.75;;;;;;;18.69;77.65;94968.52;1563143;90;21190;-60
2021/08/22 06:45:50;;;;;;;17.00;9.80;;;;;;;18.78;76.89;94962.75;1563032;90;21468;-60
2021/08/22 06:48:17;;;;;;;14.68;11.03;;;;;;;18.88;76.58;94965.50;1562801;90;21076;-59
2021/08/22 06:53:31;;;;;;;23.83;19.52;;;;;;;19.06;75.76;94967.92;1854457;77;22707;-59
2021/08/22 06:55:58;;;;;;;15.30;12.03;;;;;;;19.13;75.66;94979.22;1822208;78;21116;-59
2021/08/22 06:58:25;;;;;;;32.80;12.35;;;;;;;19.21;74.59;94976.16;1821991;78;21753;-60
2021/08/22 07:00:53;;;;;;;18.70;12.33;;;;;;;19.24;74.26;94973.77;1821887;78;20951;-61
2021/08/22 07:03:20;;;;;;;15.43;9.30;;;;;;;19.25;74.13;94977.45;1822012;78;20976;-59
2021/08/22 07:05:47;;;;;;;13.75;11.95;;;;;;;19.27;73.76;94977.72;1822194;78;20960;-59
2021/08/22 07:08:15;;;;;;;17.05;12.35;;;;;;;19.26;73.51;94971.23;1822047;78;21039;-59
2021/08/22 07:10:43;;;;;;;13.75;11.15;;;;;;;19.30;73.57;94974.55;1821916;78;21171;-59
2021/08/22 07:13:10;;;;;;;13.45;10.95;;;;;;;19.38;72.95;94972.19;1822023;78;20921;-60
2021/08/22 07:15:37;;;;;;;16.67;12.82;;;;;;;19.40;72.49;94975.24;1822205;78;20961;-59
2021/08/22 07:18:03;;;;;;;24.40;16.05;;;;;;;19.42;72.19;94978.33;1821990;78;20931;-59
2021/08/22 07:20:30;;;;;;;15.48;13.22;;;;;;;19.44;71.56;94983.39;1822025;78;20987;-59
2021/08/22 07:22:57;;;;;;;20.35;13.22;;;;;;;19.42;71.54;94986.70;1821977;78;21807;-60
2021/08/22 07:25:24;;;;;;;13.78;12.03;;;;;;;19.46;71.03;94981.64;1821808;78;20878;-59
2021/08/22 07:27:52;;;;;;;16.52;13.68;;;;;;;19.49;70.50;94982.04;1822080;78;21406;-59
2021/08/22 07:30:19;;;;;;;12.90;11.55;;;;;;;19.50;71.02;94985.58;1822001;78;21002;-60
2021/08/22 07:32:46;;;;;;;14.85;11.68;;;;;;;19.48;70.54;94980.51;1821896;78;20938;-59
2021/08/22 07:35:13;;;;;;;13.10;11.55;;;;;;;19.49;70.39;94980.64;1821965;78;21509;-59
2021/08/22 07:37:40;;;;;;;16.35;12.80;;;;;;;19.55;70.60;94984.22;1821818;78;20950;-59
2021/08/22 07:40:09;;;;;;;15.93;12.53;;;;;;;19.55;70.14;94985.61;1791459;78;20997;-59
2021/08/22 07:42:36;;;;;;;14.47;11.78;;;;;;;19.49;70.66;94980.64;1789612;80;20990;-60
2021/08/22 07:45:04;;;;;;;18.85;13.70;;;;;;;19.49;70.74;94982.66;1789609;80;20935;-60
2021/08/22 07:47:31;;;;;;;16.52;13.88;;;;;;;19.49;70.86;94982.66;1789834;80;21292;-59
2021/08/22 07:49:57;;;;;;;18.82;13.05;;;;;;;19.52;70.63;94976.84;1789478;80;21020;-59
2021/08/22 07:52:24;;;;;;;22.60;12.63;;;;;;;19.59;70.61;94981.20;1789576;80;21400;-58
2021/08/22 07:54:51;;;;;;;14.47;12.03;;;;;;;19.60;70.48;94983.48;1789716;80;20958;-59
2021/08/22 07:57:18;;;;;;;17.62;13.32;;;;;;;19.58;70.49;94986.00;1789733;80;20949;-60
2021/08/22 07:59:45;;;;;;;19.45;12.20;;;;;;;19.55;70.73;94980.03;1789570;80;21179;-59
2021/08/22 08:02:11;;;;;;;15.13;12.90;;;;;;;19.54;70.97;94981.30;1789580;80;20946;-61
2021/08/22 08:04:38;;;;;;;14.60;13.03;;;;;;;19.57;71.02;94983.08;1789208;80;21540;-59
2021/08/22 08:07:06;;;;;;;14.93;12.33;;;;;;;19.63;70.63;94982.50;1789117;80;21422;-59
2021/08/22 08:09:34;;;;;;;11.40;10.20;;;;;;;19.70;70.12;94979.22;1788981;80;20942;-58
2021/08/22 08:12:04;;;;;;;14.80;11.20;;;;;;;19.79;69.86;94977.63;1789002;79;20918;-59
2021/08/22 08:14:31;;;;;;;15.55;13.35;;;;;;;19.87;69.56;94972.30;1788887;80;20938;-58
2021/08/22 08:16:58;;;;;;;15.70;12.45;;;;;;;19.94;69.80;94970.45;1788960;80;21029;-59
2021/08/22 08:19:24;;;;;;;15.03;12.25;;;;;;;20.06;69.81;94963.64;1789057;80;20997;-59
2021/08/22 08:21:51;;;;;;;15.72;12.05;;;;;;;20.21;69.65;94970.56;1789096;79;20877;-60
2021/08/22 08:24:18;;;;;;;13.20;11.48;;;;;;;20.33;69.38;94972.88;1789189;80;21148;-60
2021/08/22 08:26:45;;;;;;;13.88;11.60;;;;;;;20.41;68.68;94970.36;1789419;80;20902;-61
2021/08/22 08:29:11;;;;;;;16.67;13.43;;;;;;;20.47;68.69;94966.93;1789093;80;20962;-58
2021/08/22 08:31:38;;;;;;;17.32;12.43;;;;;;;20.53;68.73;94964.28;1788992;80;21088;-59
2021/08/22 08:34:05;;;;;;;14.98;13.40;;;;;;;20.62;68.06;94956.28;1789098;80;20946;-60
2021/08/22 08:36:33;;;;;;;17.40;12.18;;;;;;;20.71;67.65;94951.86;1789245;80;20909;-59
2021/08/22 08:39:01;;;;;;;13.35;11.90;;;;;;;20.81;67.24;94950.31;1788773;78;20997;-58
2021/08/22 08:41:28;;;;;;;12.60;11.18;;;;;;;20.90;67.14;94948.70;1789267;80;21442;-59
2021/08/22 08:43:57;;;;;;;13.60;11.30;;;;;;;21.00;67.07;94940.17;1788852;79;21138;-59
2021/08/22 08:46:39;;;;;;;15.15;12.05;;;;;;;21.07;67.16;94942.47;1789235;80;20985;-59
2021/08/22 08:49:51;;;;;;;13.85;11.65;;;;;;;21.19;67.20;94943.96;1788945;80;21066;-58
2021/08/22 08:52:29;;;;;;;12.90;11.60;;;;;;;21.34;67.06;94941.65;1782158;80;20941;-60
2021/08/22 08:55:28;;;;;;;14.13;12.07;;;;;;;21.46;66.03;94941.77;1749879;81;20981;-59
2021/08/22 08:57:56;;;;;;;12.40;11.08;;;;;;;21.56;66.11;94931.79;1760187;80;21446;-59
2021/08/22 09:00:35;;;;;;;14.33;11.57;;;;;;;21.74;65.72;94931.25;1759915;81;21027;-59
2021/08/22 09:03:04;;;;;;;18.40;12.23;;;;;;;21.92;65.83;94925.06;1760283;81;21083;-58
2021/08/22 09:06:15;;;;;;;11.25;10.10;;;;;;;22.14;65.43;94931.33;1759920;81;20933;-59
2021/08/22 09:09:04;;;;;;;12.03;10.45;;;;;;;22.37;64.79;94920.09;1760051;81;20926;-58
2021/08/22 09:12:22;;;;;;;9.45;8.50;;;;;;;22.55;63.85;94916.06;1759931;81;20981;-60
2021/08/22 09:15:28;;;;;;;12.37;10.65;;;;;;;22.72;62.60;94911.09;1760446;81;21049;-58
2021/08/22 09:18:42;;;;;;;14.07;11.03;;;;;;;22.87;61.45;94912.86;1759905;80;21112;-58
2021/08/22 09:22:03;;;;;;;13.93;9.45;;;;;;;22.97;60.60;94915.47;1759813;81;21476;-59
2021/08/22 09:25:12;;;;;;;10.25;9.25;;;;;;;23.05;59.77;94900.97;1759910;81;21041;-60
2021/08/22 09:28:34;;;;;;;13.03;9.93;;;;;;;23.09;59.54;94900.69;1760047;81;20976;-59
2021/08/22 09:31:58;;;;;;;10.23;9.17;;;;;;;23.23;59.56;94900.97;1760150;81;21488;-59
2021/08/22 09:35:21;;;;;;;11.78;9.50;;;;;;;23.40;59.31;94888.27;1760274;81;21224;-59
2021/08/22 09:38:13;;;;;;;10.63;8.48;;;;;;;23.63;58.36;94884.56;1759936;81;20968;-59
2021/08/22 09:41:11;;;;;;;10.03;7.72;;;;;;;23.74;57.36;94897.84;1760257;81;21025;-59
2021/08/22 09:44:25;;;;;;;11.25;7.87;;;;;;;23.83;55.89;94891.12;1749893;81;21488;-58
2021/08/22 09:47:30;;;;;;;9.90;8.37;;;;;;;23.89;55.05;94901.00;1760180;81;20933;-59
2021/08/22 09:50:26;;;;;;;11.33;8.03;;;;;;;24.03;54.88;94893.53;1759857;81;21150;-59
2021/08/22 09:53:48;;;;;;;9.43;8.25;;;;;;;24.31;54.70;94888.30;1756653;79;20996;-59
2021/08/22 09:57:03;;;;;;;10.00;8.05;;;;;;;24.72;53.21;94890.78;1757034;81;21405;-60
2021/08/22 10:00:22;;;;;;;11.28;8.60;;;;;;;25.12;52.78;94883.97;1759822;81;20981;-60
2021/08/22 10:03:23;;;;;;;8.70;7.80;;;;;;;25.61;52.09;94879.47;1760000;81;21181;-60
2021/08/22 10:06:18;;;;;;;7.62;6.25;;;;;;;26.04;50.34;94881.44;1759882;81;21155;-59
2021/08/22 10:09:17;;;;;;;7.70;6.95;;;;;;;26.20;48.03;94874.68;1759860;81;20953;-60
2021/08/22 10:11:55;;;;;;;7.90;7.10;;;;;;;26.20;47.87;94871.86;1758826;81;21271;-59
2021/08/22 10:14:26;;;;;;;8.03;7.08;;;;;;;26.08;48.21;94864.19;1759905;81;21001;-60
2021/08/22 10:16:56;;;;;;;13.45;7.78;;;;;;;26.05;48.99;94864.62;1760367;81;21398;-60
2021/08/22 10:19:29;;;;;;;9.25;6.75;;;;;;;26.06;48.81;94863.31;1759836;81;21550;-59
2021/08/22 10:22:18;;;;;;;12.33;6.80;;;;;;;26.05;48.27;94863.84;1759759;80;20965;-60
2021/08/22 10:24:54;;;;;;;6.72;5.87;;;;;;;26.18;48.06;94864.59;1759806;81;20933;-60
2021/08/22 10:27:45;;;;;;;6.62;5.83;;;;;;;26.56;47.05;94858.75;1759902;80;20996;-60
2021/08/22 10:30:18;;;;;;;8.38;5.72;;;;;;;27.12;46.50;94858.92;1759795;81;20952;-60
2021/08/22 10:33:05;;;;;;;12.63;5.50;;;;;;;27.82;43.25;94860.39;1760550;81;21393;-59
2021/08/22 10:35:34;;;;;;;10.20;5.58;;;;;;;28.21;40.99;94857.17;1759858;81;20954;-59
2021/08/22 10:38:20;;;;;;;11.40;6.22;;;;;;;28.16;40.66;94856.02;1759883;80;21469;-59
2021/08/22 10:40:48;;;;;;;8.38;4.62;;;;;;;27.96;39.23;94856.10;1759690;81;21060;-59
2021/08/22 10:43:25;;;;;;;8.60;4.50;;;;;;;27.77;38.35;94858.45;1759765;80;20985;-59
2021/08/22 10:45:53;;;;;;;5.33;4.40;;;;;;;27.64;37.65;94861.38;1759924;81;21471;-60
2021/08/22 10:48:29;;;;;;;5.15;4.65;;;;;;;27.48;39.54;94854.11;1759826;81;20983;-58
2021/08/22 10:51:07;;;;;;;8.60;6.37;;;;;;;27.37;41.12;94855.81;1759852;80;21000;-60
2021/08/22 10:53:40;;;;;;;14.28;6.25;;;;;;;27.31;41.72;94858.03;1772606;80;20942;-59
2021/08/22 10:56:30;;;;;;;8.03;5.62;;;;;;;27.13;43.18;94854.78;1788778;80;21061;-59
2021/08/22 10:59:06;;;;;;;6.83;4.95;;;;;;;26.93;43.74;94859.77;1788857;80;21097;-59
2021/08/22 11:01:31;;;;;;;9.38;5.78;;;;;;;26.85;44.39;94864.57;1788582;80;21033;-60
2021/08/22 11:04:11;;;;;;;8.40;5.95;;;;;;;26.73;44.18;94863.34;1789069;79;21001;-59
2021/08/22 11:07:03;;;;;;;7.03;5.83;;;;;;;26.63;44.32;94859.47;1789070;80;20986;-59
2021/08/22 11:09:48;;;;;;;7.03;6.35;;;;;;;26.58;44.52;94861.01;1789247;80;20946;-63
2021/08/22 11:12:25;;;;;;;9.38;6.35;;;;;;;26.52;46.06;94861.13;1788986;80;21819;-59
2021/08/22 11:14:52;;;;;;;16.05;7.45;;;;;;;26.45;46.83;94868.84;1789202;80;20954;-59
2021/08/22 11:17:19;;;;;;;8.43;6.78;;;;;;;26.41;47.69;94863.42;1788926;80;20954;-59
2021/08/22 11:19:47;;;;;;;7.12;6.42;;;;;;;26.37;48.08;94866.60;1788847;80;20980;-59
2021/08/22 11:22:28;;;;;;;7.28;6.15;;;;;;;26.35;47.70;94865.63;1788740;80;21043;-59
2021/08/22 11:24:57;;;;;;;8.05;6.55;;;;;;;26.33;47.87;94866.16;1788950;80;21100;-59
2021/08/22 11:27:27;;;;;;;8.08;6.50;;;;;;;26.42;47.91;94865.71;1788812;80;21433;-59
2021/08/22 11:30:03;;;;;;;9.35;6.58;;;;;;;26.60;47.38;94863.39;1789047;80;20985;-59
2021/08/22 11:32:30;;;;;;;5.28;4.78;;;;;;;26.81;46.26;94865.58;1788715;80;21029;-59
2021/08/22 11:35:13;;;;;;;8.70;5.97;;;;;;;27.42;45.13;94861.22;1788778;80;21049;-60
2021/08/22 11:37:43;;;;;;;7.28;6.30;;;;;;;27.94;44.30;94865.80;1788695;80;20982;-59
2021/08/22 11:40:15;;;;;;;6.70;5.37;;;;;;;28.34;43.82;94851.38;1788849;78;21034;-58
2021/08/22 11:42:50;;;;;;;7.25;5.50;;;;;;;28.35;44.37;94853.66;1789137;80;20989;-58
2021/08/22 11:45:19;;;;;;;7.50;5.10;;;;;;;28.13;43.56;94850.71;1789166;80;21084;-60
2021/08/22 11:47:46;;;;;;;6.37;5.67;;;;;;;27.77;45.02;94857.03;1759039;80;20954;-59
2021/08/22 11:50:14;;;;;;;11.68;5.55;;;;;;;27.46;45.82;94863.80;1758699;80;21109;-60
2021/08/22 11:52:45;;;;;;;8.50;5.72;;;;;;;27.19;46.82;94861.72;1788933;80;20942;-59